sensor_id;sensor_type;location;lat;lon;timestamp;temperature;humidity
84294;DHT22;74463;51.182;3.210;2024-02-16T00:02:01;14.10;73.50
84294;DHT22;74463;51.182;3.210;2024-02-16T00:04:28;14.10;73.60
84294;DHT22;74463;51.182;3.210;2024-02-16T00:06:55;14.00;74.10
84294;DHT22;74463;51.182;3.210;2024-02-16T00:09:22;14.00;74.50
84294;DHT22;74463;51.182;3.210;2024-02-16T00:11:50;14.10;74.10
84294;DHT22;74463;51.182;3.210;2024-02-16T00:14:18;14.10;74.40
84294;DHT22;74463;51.182;3.210;2024-02-16T00:16:47;14.10;74.40
84294;DHT22;74463;51.182;3.210;2024-02-16T00:19:14;14.10;74.10
84294;DHT22;74463;51.182;3.210;2024-02-16T00:21:41;14.10;74.10
84294;DHT22;74463;51.182;3.210;2024-02-16T00:24:08;14.00;74.20
84294;DHT22;74463;51.182;3.210;2024-02-16T00:26:35;14.00;74.70
84294;DHT22;74463;51.182;3.210;2024-02-16T00:29:04;14.00;74.80
84294;DHT22;74463;51.182;3.210;2024-02-16T00:31:31;14.00;74.50
84294;DHT22;74463;51.182;3.210;2024-02-16T00:33:58;13.80;75.00
84294;DHT22;74463;51.182;3.210;2024-02-16T00:36:26;13.90;74.80
84294;DHT22;74463;51.182;3.210;2024-02-16T00:38:53;13.90;75.10
84294;DHT22;74463;51.182;3.210;2024-02-16T00:41:22;13.80;76.30
84294;DHT22;74463;51.182;3.210;2024-02-16T00:43:49;13.90;74.80
84294;DHT22;74463;51.182;3.210;2024-02-16T00:46:17;13.80;74.70
84294;DHT22;74463;51.182;3.210;2024-02-16T00:48:44;13.90;74.50
84294;DHT22;74463;51.182;3.210;2024-02-16T00:51:13;13.90;75.00
84294;DHT22;74463;51.182;3.210;2024-02-16T00:53:40;13.80;75.20
84294;DHT22;74463;51.182;3.210;2024-02-16T00:56:07;13.70;75.60
84294;DHT22;74463;51.182;3.210;2024-02-16T00:58:34;13.90;75.10
84294;DHT22;74463;51.182;3.210;2024-02-16T01:01:01;13.90;74.70
84294;DHT22;74463;51.182;3.210;2024-02-16T01:03:30;13.90;74.80
84294;DHT22;74463;51.182;3.210;2024-02-16T01:05:57;14.00;74.20
84294;DHT22;74463;51.182;3.210;2024-02-16T01:08:24;13.90;74.60
84294;DHT22;74463;51.182;3.210;2024-02-16T01:10:53;14.00;74.60
84294;DHT22;74463;51.182;3.210;2024-02-16T01:13:20;14.20;73.60
84294;DHT22;74463;51.182;3.210;2024-02-16T01:15:47;14.00;74.50
84294;DHT22;74463;51.182;3.210;2024-02-16T01:18:14;14.00;74.50
84294;DHT22;74463;51.182;3.210;2024-02-16T01:20:42;13.90;74.20
84294;DHT22;74463;51.182;3.210;2024-02-16T01:23:09;14.00;74.00
84294;DHT22;74463;51.182;3.210;2024-02-16T01:25:36;14.00;74.20
84294;DHT22;74463;51.182;3.210;2024-02-16T01:28:04;14.00;73.80
84294;DHT22;74463;51.182;3.210;2024-02-16T01:30:31;14.00;73.70
84294;DHT22;74463;51.182;3.210;2024-02-16T01:32:58;13.90;73.90
84294;DHT22;74463;51.182;3.210;2024-02-16T01:35:25;13.80;74.10
84294;DHT22;74463;51.182;3.210;2024-02-16T01:37:53;13.80;74.60
84294;DHT22;74463;51.182;3.210;2024-02-16T01:40:20;13.90;74.40
84294;DHT22;74463;51.182;3.210;2024-02-16T01:42:48;13.70;74.50
84294;DHT22;74463;51.182;3.210;2024-02-16T01:45:15;13.80;74.70
84294;DHT22;74463;51.182;3.210;2024-02-16T01:47:43;13.90;74.20
84294;DHT22;74463;51.182;3.210;2024-02-16T01:50:13;13.80;74.60
84294;DHT22;74463;51.182;3.210;2024-02-16T01:52:41;13.70;74.60
84294;DHT22;74463;51.182;3.210;2024-02-16T01:55:10;13.70;74.30
84294;DHT22;74463;51.182;3.210;2024-02-16T01:57:39;13.70;74.30
84294;DHT22;74463;51.182;3.210;2024-02-16T02:00:06;13.70;74.30
84294;DHT22;74463;51.182;3.210;2024-02-16T02:02:34;13.70;74.60
84294;DHT22;74463;51.182;3.210;2024-02-16T02:05:01;13.90;74.00
84294;DHT22;74463;51.182;3.210;2024-02-16T02:07:28;13.70;74.10
84294;DHT22;74463;51.182;3.210;2024-02-16T02:09:55;13.70;74.30
84294;DHT22;74463;51.182;3.210;2024-02-16T02:12:24;13.70;74.60
84294;DHT22;74463;51.182;3.210;2024-02-16T02:14:51;13.70;74.60
84294;DHT22;74463;51.182;3.210;2024-02-16T02:17:19;13.60;74.30
84294;DHT22;74463;51.182;3.210;2024-02-16T02:19:46;13.80;73.90
84294;DHT22;74463;51.182;3.210;2024-02-16T02:22:16;13.60;74.10
84294;DHT22;74463;51.182;3.210;2024-02-16T02:24:43;13.70;74.30
84294;DHT22;74463;51.182;3.210;2024-02-16T02:27:11;13.70;74.30
84294;DHT22;74463;51.182;3.210;2024-02-16T02:29:38;13.80;73.40
84294;DHT22;74463;51.182;3.210;2024-02-16T02:32:06;13.80;73.60
84294;DHT22;74463;51.182;3.210;2024-02-16T02:34:33;13.90;73.00
84294;DHT22;74463;51.182;3.210;2024-02-16T02:37:01;13.90;72.80
84294;DHT22;74463;51.182;3.210;2024-02-16T02:39:31;13.80;73.20
84294;DHT22;74463;51.182;3.210;2024-02-16T02:41:58;13.80;73.10
84294;DHT22;74463;51.182;3.210;2024-02-16T02:44:25;13.80;72.70
84294;DHT22;74463;51.182;3.210;2024-02-16T02:46:52;13.80;74.10
84294;DHT22;74463;51.182;3.210;2024-02-16T02:49:19;13.80;73.10
84294;DHT22;74463;51.182;3.210;2024-02-16T02:51:46;13.70;73.30
84294;DHT22;74463;51.182;3.210;2024-02-16T02:54:13;13.70;73.80
84294;DHT22;74463;51.182;3.210;2024-02-16T02:56:41;13.70;73.80
84294;DHT22;74463;51.182;3.210;2024-02-16T02:59:08;13.70;73.80
84294;DHT22;74463;51.182;3.210;2024-02-16T03:01:36;13.80;73.60
84294;DHT22;74463;51.182;3.210;2024-02-16T03:04:03;13.80;73.50
84294;DHT22;74463;51.182;3.210;2024-02-16T03:06:30;13.80;73.40
84294;DHT22;74463;51.182;3.210;2024-02-16T03:08:57;13.70;74.10
84294;DHT22;74463;51.182;3.210;2024-02-16T03:11:25;13.70;73.80
84294;DHT22;74463;51.182;3.210;2024-02-16T03:13:53;13.70;74.20
84294;DHT22;74463;51.182;3.210;2024-02-16T03:16:20;13.60;74.20
84294;DHT22;74463;51.182;3.210;2024-02-16T03:18:47;13.60;74.10
84294;DHT22;74463;51.182;3.210;2024-02-16T03:21:15;13.60;74.30
84294;DHT22;74463;51.182;3.210;2024-02-16T03:23:42;13.60;74.30
84294;DHT22;74463;51.182;3.210;2024-02-16T03:26:16;13.60;74.50
84294;DHT22;74463;51.182;3.210;2024-02-16T03:28:44;13.60;74.50
84294;DHT22;74463;51.182;3.210;2024-02-16T03:31:18;13.50;74.90
84294;DHT22;74463;51.182;3.210;2024-02-16T03:33:45;13.50;74.80
84294;DHT22;74463;51.182;3.210;2024-02-16T03:36:13;13.50;74.80
84294;DHT22;74463;51.182;3.210;2024-02-16T03:38:41;13.40;75.30
84294;DHT22;74463;51.182;3.210;2024-02-16T03:41:12;13.40;75.80
84294;DHT22;74463;51.182;3.210;2024-02-16T03:43:40;13.40;75.70
84294;DHT22;74463;51.182;3.210;2024-02-16T03:46:06;13.40;75.40
84294;DHT22;74463;51.182;3.210;2024-02-16T03:48:35;13.50;75.20
84294;DHT22;74463;51.182;3.210;2024-02-16T03:51:02;13.40;75.60
84294;DHT22;74463;51.182;3.210;2024-02-16T03:53:29;13.50;75.60
84294;DHT22;74463;51.182;3.210;2024-02-16T03:55:56;13.50;75.60
84294;DHT22;74463;51.182;3.210;2024-02-16T03:58:24;13.50;75.80
84294;DHT22;74463;51.182;3.210;2024-02-16T04:00:51;13.60;75.20
84294;DHT22;74463;51.182;3.210;2024-02-16T04:03:19;13.70;74.80
84294;DHT22;74463;51.182;3.210;2024-02-16T04:05:47;13.80;74.70
84294;DHT22;74463;51.182;3.210;2024-02-16T04:08:15;13.70;74.90
84294;DHT22;74463;51.182;3.210;2024-02-16T04:10:42;13.70;74.80
84294;DHT22;74463;51.182;3.210;2024-02-16T04:13:09;13.80;74.70
84294;DHT22;74463;51.182;3.210;2024-02-16T04:15:36;13.80;74.40
84294;DHT22;74463;51.182;3.210;2024-02-16T04:18:04;13.90;74.80
84294;DHT22;74463;51.182;3.210;2024-02-16T04:20:32;13.70;74.70
84294;DHT22;74463;51.182;3.210;2024-02-16T04:23:01;13.80;74.80
84294;DHT22;74463;51.182;3.210;2024-02-16T04:25:29;13.80;74.50
84294;DHT22;74463;51.182;3.210;2024-02-16T04:27:55;13.90;74.40
84294;DHT22;74463;51.182;3.210;2024-02-16T04:30:22;13.90;74.40
84294;DHT22;74463;51.182;3.210;2024-02-16T04:32:49;13.90;74.50
84294;DHT22;74463;51.182;3.210;2024-02-16T04:35:16;13.90;74.40
84294;DHT22;74463;51.182;3.210;2024-02-16T04:37:43;14.00;74.30
84294;DHT22;74463;51.182;3.210;2024-02-16T04:40:12;14.10;74.20
84294;DHT22;74463;51.182;3.210;2024-02-16T04:42:39;14.00;74.20
84294;DHT22;74463;51.182;3.210;2024-02-16T04:45:07;14.10;74.30
84294;DHT22;74463;51.182;3.210;2024-02-16T04:47:37;14.00;74.10
84294;DHT22;74463;51.182;3.210;2024-02-16T04:50:05;14.10;74.00
84294;DHT22;74463;51.182;3.210;2024-02-16T04:52:36;14.00;74.10
84294;DHT22;74463;51.182;3.210;2024-02-16T04:55:04;14.00;74.30
84294;DHT22;74463;51.182;3.210;2024-02-16T04:57:32;14.00;74.50
84294;DHT22;74463;51.182;3.210;2024-02-16T05:00:00;14.00;74.60
84294;DHT22;74463;51.182;3.210;2024-02-16T05:02:27;13.80;75.20
84294;DHT22;74463;51.182;3.210;2024-02-16T05:04:54;13.90;75.50
84294;DHT22;74463;51.182;3.210;2024-02-16T05:07:21;13.80;75.40
84294;DHT22;74463;51.182;3.210;2024-02-16T05:09:48;13.80;75.60
84294;DHT22;74463;51.182;3.210;2024-02-16T05:12:15;13.70;75.70
84294;DHT22;74463;51.182;3.210;2024-02-16T05:14:48;13.90;75.30
84294;DHT22;74463;51.182;3.210;2024-02-16T05:17:15;13.80;75.40
84294;DHT22;74463;51.182;3.210;2024-02-16T05:19:42;13.80;75.60
84294;DHT22;74463;51.182;3.210;2024-02-16T05:22:09;13.90;75.20
84294;DHT22;74463;51.182;3.210;2024-02-16T05:24:37;13.90;75.10
84294;DHT22;74463;51.182;3.210;2024-02-16T05:27:04;13.90;75.20
84294;DHT22;74463;51.182;3.210;2024-02-16T05:29:31;13.90;75.30
84294;DHT22;74463;51.182;3.210;2024-02-16T05:31:59;14.00;75.30
84294;DHT22;74463;51.182;3.210;2024-02-16T05:34:26;14.00;75.30
84294;DHT22;74463;51.182;3.210;2024-02-16T05:36:57;14.00;74.90
84294;DHT22;74463;51.182;3.210;2024-02-16T05:39:25;13.90;75.30
84294;DHT22;74463;51.182;3.210;2024-02-16T05:41:56;14.00;75.10
84294;DHT22;74463;51.182;3.210;2024-02-16T05:44:23;14.00;74.90
84294;DHT22;74463;51.182;3.210;2024-02-16T05:46:50;13.90;75.70
84294;DHT22;74463;51.182;3.210;2024-02-16T05:49:19;13.80;75.90
84294;DHT22;74463;51.182;3.210;2024-02-16T05:51:46;13.80;76.20
84294;DHT22;74463;51.182;3.210;2024-02-16T05:54:43;13.80;76.30
84294;DHT22;74463;51.182;3.210;2024-02-16T05:57:10;13.80;76.50
84294;DHT22;74463;51.182;3.210;2024-02-16T05:59:38;13.80;76.50
84294;DHT22;74463;51.182;3.210;2024-02-16T06:02:05;13.80;76.30
84294;DHT22;74463;51.182;3.210;2024-02-16T06:04:34;13.90;76.20
84294;DHT22;74463;51.182;3.210;2024-02-16T06:07:01;13.90;76.00
84294;DHT22;74463;51.182;3.210;2024-02-16T06:09:28;13.90;76.20
84294;DHT22;74463;51.182;3.210;2024-02-16T06:12:01;13.80;76.40
84294;DHT22;74463;51.182;3.210;2024-02-16T06:14:30;13.80;77.00
84294;DHT22;74463;51.182;3.210;2024-02-16T06:16:57;13.80;76.50
84294;DHT22;74463;51.182;3.210;2024-02-16T06:19:24;13.90;76.50
84294;DHT22;74463;51.182;3.210;2024-02-16T06:21:52;13.70;77.20
84294;DHT22;74463;51.182;3.210;2024-02-16T06:24:20;13.80;77.00
84294;DHT22;74463;51.182;3.210;2024-02-16T06:26:47;13.80;77.30
84294;DHT22;74463;51.182;3.210;2024-02-16T06:29:14;13.80;77.20
84294;DHT22;74463;51.182;3.210;2024-02-16T06:31:41;13.80;77.30
84294;DHT22;74463;51.182;3.210;2024-02-16T06:34:08;13.80;77.40
84294;DHT22;74463;51.182;3.210;2024-02-16T06:36:35;13.80;77.20
84294;DHT22;74463;51.182;3.210;2024-02-16T06:39:04;13.80;77.50
84294;DHT22;74463;51.182;3.210;2024-02-16T06:41:30;13.80;77.40
84294;DHT22;74463;51.182;3.210;2024-02-16T06:43:57;13.70;78.20
84294;DHT22;74463;51.182;3.210;2024-02-16T06:46:24;13.70;79.30
84294;DHT22;74463;51.182;3.210;2024-02-16T06:48:54;13.70;79.80
84294;DHT22;74463;51.182;3.210;2024-02-16T06:51:23;13.80;79.80
84294;DHT22;74463;51.182;3.210;2024-02-16T06:53:51;13.70;80.10
84294;DHT22;74463;51.182;3.210;2024-02-16T06:56:21;13.60;81.00
84294;DHT22;74463;51.182;3.210;2024-02-16T06:58:48;13.60;81.40
84294;DHT22;74463;51.182;3.210;2024-02-16T07:01:16;13.50;81.10
84294;DHT22;74463;51.182;3.210;2024-02-16T07:03:44;13.70;80.80
84294;DHT22;74463;51.182;3.210;2024-02-16T07:06:11;13.70;80.60
84294;DHT22;74463;51.182;3.210;2024-02-16T07:08:39;13.60;81.00
84294;DHT22;74463;51.182;3.210;2024-02-16T07:11:06;13.50;81.20
84294;DHT22;74463;51.182;3.210;2024-02-16T07:13:34;13.60;81.30
84294;DHT22;74463;51.182;3.210;2024-02-16T07:16:01;13.50;82.20
84294;DHT22;74463;51.182;3.210;2024-02-16T07:18:29;13.60;81.90
84294;DHT22;74463;51.182;3.210;2024-02-16T07:20:57;13.50;81.80
84294;DHT22;74463;51.182;3.210;2024-02-16T07:23:24;13.40;81.70
84294;DHT22;74463;51.182;3.210;2024-02-16T07:25:51;13.40;81.90
84294;DHT22;74463;51.182;3.210;2024-02-16T07:28:20;13.50;82.00
84294;DHT22;74463;51.182;3.210;2024-02-16T07:30:49;13.50;81.70
84294;DHT22;74463;51.182;3.210;2024-02-16T07:33:16;13.50;81.80
84294;DHT22;74463;51.182;3.210;2024-02-16T07:35:43;13.60;81.60
84294;DHT22;74463;51.182;3.210;2024-02-16T07:38:10;13.70;81.40
84294;DHT22;74463;51.182;3.210;2024-02-16T07:40:37;13.70;81.60
84294;DHT22;74463;51.182;3.210;2024-02-16T07:43:05;13.70;81.10
84294;DHT22;74463;51.182;3.210;2024-02-16T07:45:32;13.60;81.80
84294;DHT22;74463;51.182;3.210;2024-02-16T07:48:00;13.60;81.70
84294;DHT22;74463;51.182;3.210;2024-02-16T07:50:30;13.70;81.70
84294;DHT22;74463;51.182;3.210;2024-02-16T07:52:57;13.70;81.60
84294;DHT22;74463;51.182;3.210;2024-02-16T07:55:24;13.70;81.60
84294;DHT22;74463;51.182;3.210;2024-02-16T07:57:51;13.70;81.80
84294;DHT22;74463;51.182;3.210;2024-02-16T08:00:19;13.60;82.20
84294;DHT22;74463;51.182;3.210;2024-02-16T08:02:46;13.50;82.90
84294;DHT22;74463;51.182;3.210;2024-02-16T08:05:14;13.50;83.40
84294;DHT22;74463;51.182;3.210;2024-02-16T08:07:45;13.40;84.80
84294;DHT22;74463;51.182;3.210;2024-02-16T08:10:13;13.30;85.30
84294;DHT22;74463;51.182;3.210;2024-02-16T08:12:40;13.30;86.10
84294;DHT22;74463;51.182;3.210;2024-02-16T08:15:08;13.40;85.80
84294;DHT22;74463;51.182;3.210;2024-02-16T08:17:36;13.30;87.10
84294;DHT22;74463;51.182;3.210;2024-02-16T08:20:04;13.20;88.90
84294;DHT22;74463;51.182;3.210;2024-02-16T08:22:33;13.10;88.40
84294;DHT22;74463;51.182;3.210;2024-02-16T08:25:00;13.20;88.40
84294;DHT22;74463;51.182;3.210;2024-02-16T08:27:27;13.30;88.50
84294;DHT22;74463;51.182;3.210;2024-02-16T08:29:54;13.10;89.30
84294;DHT22;74463;51.182;3.210;2024-02-16T08:32:21;13.10;90.00
84294;DHT22;74463;51.182;3.210;2024-02-16T08:34:48;13.00;90.10
84294;DHT22;74463;51.182;3.210;2024-02-16T08:37:16;13.00;90.40
84294;DHT22;74463;51.182;3.210;2024-02-16T08:39:44;13.10;90.20
84294;DHT22;74463;51.182;3.210;2024-02-16T08:42:11;13.00;90.70
84294;DHT22;74463;51.182;3.210;2024-02-16T08:44:38;13.00;90.60
84294;DHT22;74463;51.182;3.210;2024-02-16T08:47:06;13.00;90.70
84294;DHT22;74463;51.182;3.210;2024-02-16T08:49:33;12.90;90.90
84294;DHT22;74463;51.182;3.210;2024-02-16T08:52:00;12.90;91.00
84294;DHT22;74463;51.182;3.210;2024-02-16T08:54:27;12.90;90.90
84294;DHT22;74463;51.182;3.210;2024-02-16T08:56:55;12.80;91.30
84294;DHT22;74463;51.182;3.210;2024-02-16T08:59:22;12.80;91.50
84294;DHT22;74463;51.182;3.210;2024-02-16T09:01:49;12.80;91.30
84294;DHT22;74463;51.182;3.210;2024-02-16T09:04:16;12.80;91.50
84294;DHT22;74463;51.182;3.210;2024-02-16T09:06:43;12.80;91.50
84294;DHT22;74463;51.182;3.210;2024-02-16T09:09:10;12.80;91.20
84294;DHT22;74463;51.182;3.210;2024-02-16T09:11:37;12.80;91.40
84294;DHT22;74463;51.182;3.210;2024-02-16T09:14:05;12.70;91.50
84294;DHT22;74463;51.182;3.210;2024-02-16T09:16:32;12.70;91.50
84294;DHT22;74463;51.182;3.210;2024-02-16T09:18:59;12.70;91.80
84294;DHT22;74463;51.182;3.210;2024-02-16T09:21:26;12.70;91.70
84294;DHT22;74463;51.182;3.210;2024-02-16T09:23:55;12.70;91.80
84294;DHT22;74463;51.182;3.210;2024-02-16T09:26:24;12.70;91.70
84294;DHT22;74463;51.182;3.210;2024-02-16T09:28:55;12.70;91.80
84294;DHT22;74463;51.182;3.210;2024-02-16T09:31:24;12.60;91.80
84294;DHT22;74463;51.182;3.210;2024-02-16T09:33:51;12.70;92.00
84294;DHT22;74463;51.182;3.210;2024-02-16T09:36:19;12.70;91.80
84294;DHT22;74463;51.182;3.210;2024-02-16T09:38:46;12.70;92.10
84294;DHT22;74463;51.182;3.210;2024-02-16T09:41:13;12.80;91.90
84294;DHT22;74463;51.182;3.210;2024-02-16T09:43:41;12.70;91.80
84294;DHT22;74463;51.182;3.210;2024-02-16T09:46:09;12.80;91.80
84294;DHT22;74463;51.182;3.210;2024-02-16T09:48:39;12.80;91.80
84294;DHT22;74463;51.182;3.210;2024-02-16T09:51:09;12.90;91.70
84294;DHT22;74463;51.182;3.210;2024-02-16T09:53:36;12.90;91.40
84294;DHT22;74463;51.182;3.210;2024-02-16T09:56:05;12.90;91.30
84294;DHT22;74463;51.182;3.210;2024-02-16T09:58:34;12.90;91.20
84294;DHT22;74463;51.182;3.210;2024-02-16T10:01:02;12.70;91.50
84294;DHT22;74463;51.182;3.210;2024-02-16T10:03:31;12.80;91.70
84294;DHT22;74463;51.182;3.210;2024-02-16T10:06:10;12.80;91.40
84294;DHT22;74463;51.182;3.210;2024-02-16T10:08:47;12.80;91.50
84294;DHT22;74463;51.182;3.210;2024-02-16T10:11:15;12.50;92.00
84294;DHT22;74463;51.182;3.210;2024-02-16T10:13:53;12.40;92.00
84294;DHT22;74463;51.182;3.210;2024-02-16T10:16:21;12.50;91.90
84294;DHT22;74463;51.182;3.210;2024-02-16T10:18:48;12.50;92.00
84294;DHT22;74463;51.182;3.210;2024-02-16T10:21:24;12.40;91.80
84294;DHT22;74463;51.182;3.210;2024-02-16T10:23:56;12.50;91.60
84294;DHT22;74463;51.182;3.210;2024-02-16T10:26:23;12.30;91.90
84294;DHT22;74463;51.182;3.210;2024-02-16T10:28:53;12.40;91.70
84294;DHT22;74463;51.182;3.210;2024-02-16T10:31:23;12.30;91.70
84294;DHT22;74463;51.182;3.210;2024-02-16T10:33:56;12.20;91.70
84294;DHT22;74463;51.182;3.210;2024-02-16T10:36:25;12.40;91.80
84294;DHT22;74463;51.182;3.210;2024-02-16T10:38:54;12.20;92.20
84294;DHT22;74463;51.182;3.210;2024-02-16T10:41:26;12.20;92.40
84294;DHT22;74463;51.182;3.210;2024-02-16T10:43:55;12.40;92.60
84294;DHT22;74463;51.182;3.210;2024-02-16T10:46:23;12.50;92.00
84294;DHT22;74463;51.182;3.210;2024-02-16T10:48:50;12.50;91.50
84294;DHT22;74463;51.182;3.210;2024-02-16T10:51:21;12.40;92.10
84294;DHT22;74463;51.182;3.210;2024-02-16T10:53:52;12.50;92.20
84294;DHT22;74463;51.182;3.210;2024-02-16T10:56:27;12.70;92.10
84294;DHT22;74463;51.182;3.210;2024-02-16T10:58:55;12.60;91.60
84294;DHT22;74463;51.182;3.210;2024-02-16T11:01:23;12.50;91.80
84294;DHT22;74463;51.182;3.210;2024-02-16T11:04:00;12.60;91.80
84294;DHT22;74463;51.182;3.210;2024-02-16T11:06:28;12.80;91.70
84294;DHT22;74463;51.182;3.210;2024-02-16T11:09:01;12.90;91.70
84294;DHT22;74463;51.182;3.210;2024-02-16T11:11:33;13.00;91.40
84294;DHT22;74463;51.182;3.210;2024-02-16T11:14:01;13.10;91.10
84294;DHT22;74463;51.182;3.210;2024-02-16T11:16:29;13.20;90.70
84294;DHT22;74463;51.182;3.210;2024-02-16T11:18:56;13.30;90.60
84294;DHT22;74463;51.182;3.210;2024-02-16T11:21:23;13.40;90.10
84294;DHT22;74463;51.182;3.210;2024-02-16T11:23:51;13.50;90.10
84294;DHT22;74463;51.182;3.210;2024-02-16T11:26:20;13.50;90.10
84294;DHT22;74463;51.182;3.210;2024-02-16T11:28:48;13.60;89.70
84294;DHT22;74463;51.182;3.210;2024-02-16T11:31:15;13.70;89.10
84294;DHT22;74463;51.182;3.210;2024-02-16T11:33:45;13.80;87.80
84294;DHT22;74463;51.182;3.210;2024-02-16T11:36:12;13.80;87.70
84294;DHT22;74463;51.182;3.210;2024-02-16T11:38:40;14.00;87.00
84294;DHT22;74463;51.182;3.210;2024-02-16T11:41:07;14.20;85.70
84294;DHT22;74463;51.182;3.210;2024-02-16T11:43:36;14.20;85.70
84294;DHT22;74463;51.182;3.210;2024-02-16T11:46:13;14.50;84.70
84294;DHT22;74463;51.182;3.210;2024-02-16T11:48:40;14.70;84.10
84294;DHT22;74463;51.182;3.210;2024-02-16T11:51:07;14.70;84.40
84294;DHT22;74463;51.182;3.210;2024-02-16T11:53:34;14.80;84.00
84294;DHT22;74463;51.182;3.210;2024-02-16T11:56:01;15.00;84.30
84294;DHT22;74463;51.182;3.210;2024-02-16T11:58:28;15.30;83.20
84294;DHT22;74463;51.182;3.210;2024-02-16T12:00:58;15.40;81.00
84294;DHT22;74463;51.182;3.210;2024-02-16T12:03:25;15.50;80.90
84294;DHT22;74463;51.182;3.210;2024-02-16T12:05:54;15.60;79.10
84294;DHT22;74463;51.182;3.210;2024-02-16T12:08:22;15.60;78.30
84294;DHT22;74463;51.182;3.210;2024-02-16T12:10:50;15.30;78.70
84294;DHT22;74463;51.182;3.210;2024-02-16T12:13:18;15.40;80.10
84294;DHT22;74463;51.182;3.210;2024-02-16T12:15:45;15.30;80.00
84294;DHT22;74463;51.182;3.210;2024-02-16T12:18:20;14.90;78.90
84294;DHT22;74463;51.182;3.210;2024-02-16T12:20:57;14.60;80.90
84294;DHT22;74463;51.182;3.210;2024-02-16T12:23:24;14.60;81.70
84294;DHT22;74463;51.182;3.210;2024-02-16T12:25:51;14.70;81.90
84294;DHT22;74463;51.182;3.210;2024-02-16T12:28:18;14.80;80.30
84294;DHT22;74463;51.182;3.210;2024-02-16T12:30:47;14.90;78.90
84294;DHT22;74463;51.182;3.210;2024-02-16T12:33:14;14.90;79.50
84294;DHT22;74463;51.182;3.210;2024-02-16T12:35:43;15.10;79.10
84294;DHT22;74463;51.182;3.210;2024-02-16T12:38:11;15.10;78.20
84294;DHT22;74463;51.182;3.210;2024-02-16T12:40:38;15.00;78.60
84294;DHT22;74463;51.182;3.210;2024-02-16T12:43:05;14.80;78.70
84294;DHT22;74463;51.182;3.210;2024-02-16T12:45:34;14.70;78.30
84294;DHT22;74463;51.182;3.210;2024-02-16T12:48:01;14.70;78.40
84294;DHT22;74463;51.182;3.210;2024-02-16T12:50:29;14.70;79.10
84294;DHT22;74463;51.182;3.210;2024-02-16T12:52:57;15.10;79.10
84294;DHT22;74463;51.182;3.210;2024-02-16T12:55:24;15.10;76.90
84294;DHT22;74463;51.182;3.210;2024-02-16T12:57:51;15.20;75.90
84294;DHT22;74463;51.182;3.210;2024-02-16T13:00:19;15.20;76.10
84294;DHT22;74463;51.182;3.210;2024-02-16T13:02:46;15.00;76.90
84294;DHT22;74463;51.182;3.210;2024-02-16T13:05:13;14.70;78.10
84294;DHT22;74463;51.182;3.210;2024-02-16T13:07:40;14.30;79.40
84294;DHT22;74463;51.182;3.210;2024-02-16T13:10:09;14.20;81.10
84294;DHT22;74463;51.182;3.210;2024-02-16T13:12:37;14.30;79.40
84294;DHT22;74463;51.182;3.210;2024-02-16T13:15:05;14.60;79.20
84294;DHT22;74463;51.182;3.210;2024-02-16T13:17:32;14.90;77.60
84294;DHT22;74463;51.182;3.210;2024-02-16T13:19:59;14.80;76.60
84294;DHT22;74463;51.182;3.210;2024-02-16T13:22:32;14.90;75.60
84294;DHT22;74463;51.182;3.210;2024-02-16T13:25:00;14.70;77.50
84294;DHT22;74463;51.182;3.210;2024-02-16T13:27:29;14.80;77.10
84294;DHT22;74463;51.182;3.210;2024-02-16T13:29:55;14.60;78.00
84294;DHT22;74463;51.182;3.210;2024-02-16T13:32:22;14.60;78.10
84294;DHT22;74463;51.182;3.210;2024-02-16T13:34:49;14.60;76.30
84294;DHT22;74463;51.182;3.210;2024-02-16T13:37:16;14.70;76.10
84294;DHT22;74463;51.182;3.210;2024-02-16T13:39:43;14.60;76.40
84294;DHT22;74463;51.182;3.210;2024-02-16T13:42:11;14.90;74.70
84294;DHT22;74463;51.182;3.210;2024-02-16T13:44:40;14.90;74.60
84294;DHT22;74463;51.182;3.210;2024-02-16T13:47:07;15.00;74.40
84294;DHT22;74463;51.182;3.210;2024-02-16T13:49:34;15.10;73.30
84294;DHT22;74463;51.182;3.210;2024-02-16T13:52:01;15.10;74.70
84294;DHT22;74463;51.182;3.210;2024-02-16T13:54:28;15.50;74.30
84294;DHT22;74463;51.182;3.210;2024-02-16T13:56:55;15.80;71.20
84294;DHT22;74463;51.182;3.210;2024-02-16T13:59:22;16.10;71.20
84294;DHT22;74463;51.182;3.210;2024-02-16T14:01:50;16.00;70.60
84294;DHT22;74463;51.182;3.210;2024-02-16T14:04:17;15.70;71.40
84294;DHT22;74463;51.182;3.210;2024-02-16T14:06:45;15.50;72.60
84294;DHT22;74463;51.182;3.210;2024-02-16T14:09:12;15.70;72.30
84294;DHT22;74463;51.182;3.210;2024-02-16T14:11:39;16.10;70.60
84294;DHT22;74463;51.182;3.210;2024-02-16T14:14:08;16.10;70.10
84294;DHT22;74463;51.182;3.210;2024-02-16T14:16:35;15.90;69.60
84294;DHT22;74463;51.182;3.210;2024-02-16T14:19:04;15.80;70.00
84294;DHT22;74463;51.182;3.210;2024-02-16T14:21:31;15.60;71.30
84294;DHT22;74463;51.182;3.210;2024-02-16T14:23:58;15.40;72.00
84294;DHT22;74463;51.182;3.210;2024-02-16T14:26:28;15.10;73.20
84294;DHT22;74463;51.182;3.210;2024-02-16T14:28:56;15.10;73.60
84294;DHT22;74463;51.182;3.210;2024-02-16T14:31:23;15.10;72.80
84294;DHT22;74463;51.182;3.210;2024-02-16T14:33:50;15.30;71.80
84294;DHT22;74463;51.182;3.210;2024-02-16T14:36:18;15.70;72.00
84294;DHT22;74463;51.182;3.210;2024-02-16T14:38:45;15.80;71.00
84294;DHT22;74463;51.182;3.210;2024-02-16T14:41:13;15.80;70.80
84294;DHT22;74463;51.182;3.210;2024-02-16T14:43:42;15.60;70.60
84294;DHT22;74463;51.182;3.210;2024-02-16T14:46:09;15.30;71.00
84294;DHT22;74463;51.182;3.210;2024-02-16T14:48:36;15.20;73.00
84294;DHT22;74463;51.182;3.210;2024-02-16T14:51:04;15.00;72.60
84294;DHT22;74463;51.182;3.210;2024-02-16T14:53:32;15.20;72.40
84294;DHT22;74463;51.182;3.210;2024-02-16T14:55:59;15.40;71.30
84294;DHT22;74463;51.182;3.210;2024-02-16T14:58:26;15.30;71.50
84294;DHT22;74463;51.182;3.210;2024-02-16T15:00:53;15.40;70.90
84294;DHT22;74463;51.182;3.210;2024-02-16T15:03:22;15.20;70.90
84294;DHT22;74463;51.182;3.210;2024-02-16T15:05:49;15.00;72.00
84294;DHT22;74463;51.182;3.210;2024-02-16T15:08:16;14.90;72.10
84294;DHT22;74463;51.182;3.210;2024-02-16T15:10:45;14.80;71.50
84294;DHT22;74463;51.182;3.210;2024-02-16T15:13:13;14.80;72.00
84294;DHT22;74463;51.182;3.210;2024-02-16T15:15:40;14.70;72.00
84294;DHT22;74463;51.182;3.210;2024-02-16T15:18:07;14.80;72.50
84294;DHT22;74463;51.182;3.210;2024-02-16T15:20:33;14.70;71.60
84294;DHT22;74463;51.182;3.210;2024-02-16T15:23:00;14.30;72.70
84294;DHT22;74463;51.182;3.210;2024-02-16T15:25:28;14.10;73.80
84294;DHT22;74463;51.182;3.210;2024-02-16T15:27:56;14.00;74.70
84294;DHT22;74463;51.182;3.210;2024-02-16T15:30:24;14.10;74.10
84294;DHT22;74463;51.182;3.210;2024-02-16T15:32:51;14.10;73.10
84294;DHT22;74463;51.182;3.210;2024-02-16T15:35:18;14.10;73.20